Covadonga — CQMQ — position and weather

sailwx.info

Track history (hours):
 
Tides and Currents Weather Stations Pressure Air Temp Water Temp Dewpoint Dewpoint Depression Visibility Wind Speed Wind Dir Waves Ship Positions

Covadonga

Last reported at 2017-Nov-20 00:30 UTC. Time now 2017-Nov-21 14:06 UTC.
Position N 43°52' W 007°29'.

Length 119 m; draft 6.8 m.

Type: Ship (hazmat cat A). MMSI: 255803540.

Date/timePositionNaut miles runAvg speedWind from/ knotsBaromVisibWave heightAir tempDewpointWater temp
2017-Nov-20 00:30N 43°52' W 007°29'612.5
2017-Nov-20 00:00N 43°53' W 007°37'612.5
2017-Nov-19 23:30N 43°53' W 007°46'712.5
2017-Nov-19 22:57N 43°53' W 007°56'612.1
2017-Nov-19 22:27N 43°52' W 008°04'19310.8
2017-Nov-19 04:29N 40°57' W 009°56'2712.3
2017-Nov-19 02:16N 40°30' W 009°56'512.7
2017-Nov-19 01:50N 40°24' W 009°55'412.7
2017-Nov-19 01:30N 40°20' W 009°56'1112.8
2017-Nov-19 00:40N 40°09' W 009°55'312.9
2017-Nov-19 00:29N 40°07' W 009°55'613.0
2017-Nov-19 00:00N 40°01' W 009°55'612.5
2017-Nov-18 23:30N 39°55' W 009°55'2712.3
2017-Nov-18 21:18N 39°27' W 009°57'412.2
2017-Nov-18 21:00N 39°24' W 009°57'612.3
2017-Nov-18 20:30N 39°18' W 009°56'612.4
2017-Nov-18 20:00N 39°11' W 009°56'612.3
2017-Nov-18 19:30N 39°05' W 009°56'612.2
2017-Nov-18 19:00N 38°59' W 009°56'612.2
2017-Nov-18 18:30N 38°53' W 009°56'612.1
2017-Nov-18 18:00N 38°47' W 009°56'612.0
2017-Nov-18 17:30N 38°41' W 009°56'612.1
2017-Nov-18 17:00N 38°35' W 009°55'612.1
2017-Nov-18 16:30N 38°29' W 009°54'612.0
2017-Nov-18 16:00N 38°23' W 009°52'612.3
2017-Nov-18 15:30N 38°17' W 009°50'612.9
2017-Nov-18 15:00N 38°11' W 009°48'612.3
2017-Nov-18 14:30N 38°05' W 009°46'612.4
2017-Nov-18 14:00N 37°59' W 009°45'612.6
2017-Nov-18 13:30N 37°53' W 009°42'612.7
2017-Nov-18 13:00N 37°47' W 009°41'612.8
2017-Nov-18 12:30N 37°40' W 009°39'612.3
2017-Nov-18 12:00N 37°34' W 009°37'612.5
2017-Nov-18 11:30N 37°28' W 009°35'612.7
2017-Nov-18 11:00N 37°22' W 009°33'712.7
2017-Nov-18 10:29N 37°16' W 009°31'612.3
2017-Nov-18 10:00N 37°10' W 009°30'612.4
2017-Nov-18 09:30N 37°04' W 009°28'612.3
2017-Nov-18 09:00N 36°58' W 009°26'612.4
2017-Nov-18 08:30N 36°52' W 009°23'912.2
2017-Nov-18 07:46N 36°45' W 009°16'312.7
2017-Nov-18 07:30N 36°43' W 009°13'912.5
2017-Nov-18 06:45N 36°39' W 009°03'512.8
2017-Nov-18 06:21N 36°38' W 008°56'513.1
2017-Nov-18 06:00N 36°36' W 008°51'17412.3
2017-Nov-17 15:48N 36°03' W 005°19'  
2017-Nov-14 08:52N 36°48' E 013°38'411.2
2017-Nov-14 08:29N 36°47' E 013°44'611.4
2017-Nov-14 08:00N 36°46' E 013°50'611.7
2017-Nov-14 07:31N 36°44' E 013°57'611.6
2017-Nov-14 07:00N 36°43' E 014°04'611.5
2017-Nov-14 06:30N 36°42' E 014°12'612.4
2017-Nov-14 06:00N 36°41' E 014°19'612.6
2017-Nov-14 05:30N 36°40' E 014°27'612.5
2017-Nov-14 05:01N 36°39' E 014°34'  
2017-Nov-10 14:41N 44°21' E 029°47'  
Track history (hours):
 
Tides and Currents Weather Stations Pressure Air Temp Water Temp Dewpoint Dewpoint Depression Visibility Wind Speed Wind Dir Waves Ship Positions

Covadonga

Last reported at 2017-Nov-20 00:30 UTC. Time now 2017-Nov-21 14:06 UTC.
Position N 43°52' W 007°29'.

Length 119 m; draft 6.8 m.

Type: Ship (hazmat cat A). MMSI: 255803540.

Date/timePositionNaut miles runAvg speedWind from/ knotsBaromVisibWave heightAir tempDewpointWater temp
2017-Nov-20 00:30N 43°52' W 007°29'612.5
2017-Nov-20 00:00N 43°53' W 007°37'612.5
2017-Nov-19 23:30N 43°53' W 007°46'712.5
2017-Nov-19 22:57N 43°53' W 007°56'612.1
2017-Nov-19 22:27N 43°52' W 008°04'19310.8
2017-Nov-19 04:29N 40°57' W 009°56'2712.3
2017-Nov-19 02:16N 40°30' W 009°56'512.7
2017-Nov-19 01:50N 40°24' W 009°55'412.7
2017-Nov-19 01:30N 40°20' W 009°56'1112.8
2017-Nov-19 00:40N 40°09' W 009°55'312.9
2017-Nov-19 00:29N 40°07' W 009°55'613.0
2017-Nov-19 00:00N 40°01' W 009°55'612.5
2017-Nov-18 23:30N 39°55' W 009°55'2712.3
2017-Nov-18 21:18N 39°27' W 009°57'412.2
2017-Nov-18 21:00N 39°24' W 009°57'612.3
2017-Nov-18 20:30N 39°18' W 009°56'612.4
2017-Nov-18 20:00N 39°11' W 009°56'612.3
2017-Nov-18 19:30N 39°05' W 009°56'612.2
2017-Nov-18 19:00N 38°59' W 009°56'612.2
2017-Nov-18 18:30N 38°53' W 009°56'612.1
2017-Nov-18 18:00N 38°47' W 009°56'612.0
2017-Nov-18 17:30N 38°41' W 009°56'612.1
2017-Nov-18 17:00N 38°35' W 009°55'612.1
2017-Nov-18 16:30N 38°29' W 009°54'612.0
2017-Nov-18 16:00N 38°23' W 009°52'612.3
2017-Nov-18 15:30N 38°17' W 009°50'612.9
2017-Nov-18 15:00N 38°11' W 009°48'612.3
2017-Nov-18 14:30N 38°05' W 009°46'612.4
2017-Nov-18 14:00N 37°59' W 009°45'612.6
2017-Nov-18 13:30N 37°53' W 009°42'612.7
2017-Nov-18 13:00N 37°47' W 009°41'612.8
2017-Nov-18 12:30N 37°40' W 009°39'612.3
2017-Nov-18 12:00N 37°34' W 009°37'612.5
2017-Nov-18 11:30N 37°28' W 009°35'612.7
2017-Nov-18 11:00N 37°22' W 009°33'712.7
2017-Nov-18 10:29N 37°16' W 009°31'612.3
2017-Nov-18 10:00N 37°10' W 009°30'612.4
2017-Nov-18 09:30N 37°04' W 009°28'612.3
2017-Nov-18 09:00N 36°58' W 009°26'612.4
2017-Nov-18 08:30N 36°52' W 009°23'912.2
2017-Nov-18 07:46N 36°45' W 009°16'312.7
2017-Nov-18 07:30N 36°43' W 009°13'912.5
2017-Nov-18 06:45N 36°39' W 009°03'512.8
2017-Nov-18 06:21N 36°38' W 008°56'513.1
2017-Nov-18 06:00N 36°36' W 008°51'17412.3
2017-Nov-17 15:48N 36°03' W 005°19'  
2017-Nov-14 08:52N 36°48' E 013°38'411.2
2017-Nov-14 08:29N 36°47' E 013°44'611.4
2017-Nov-14 08:00N 36°46' E 013°50'611.7
2017-Nov-14 07:31N 36°44' E 013°57'611.6
2017-Nov-14 07:00N 36°43' E 014°04'611.5
2017-Nov-14 06:30N 36°42' E 014°12'612.4
2017-Nov-14 06:00N 36°41' E 014°19'612.6
2017-Nov-14 05:30N 36°40' E 014°27'612.5
2017-Nov-14 05:01N 36°39' E 014°34'  
2017-Nov-10 14:41N 44°21' E 029°47'  

Dump ship's entire track history